createdAt,value
2023-05-19T00:00:07.200Z,19.24
2023-05-19T00:02:33.818Z,18.99
2023-05-19T00:05:00.399Z,19.08
2023-05-19T00:07:26.801Z,18.91
2023-05-19T00:09:53.207Z,19.28
2023-05-19T00:12:19.641Z,19.00
2023-05-19T00:14:46.015Z,19.13
2023-05-19T00:17:12.429Z,19.33
2023-05-19T00:19:38.840Z,18.97
2023-05-19T00:22:05.267Z,19.14
2023-05-19T00:24:31.682Z,19.27
2023-05-19T00:26:58.150Z,18.83
2023-05-19T00:29:24.650Z,19.04
2023-05-19T00:31:51.112Z,19.02
2023-05-19T00:34:17.582Z,19.23
2023-05-19T00:36:43.990Z,18.90
2023-05-19T00:39:10.385Z,19.13
2023-05-19T00:41:36.829Z,18.82
2023-05-19T00:44:03.285Z,18.91
2023-05-19T00:46:29.738Z,18.99
2023-05-19T00:48:56.218Z,19.13
2023-05-19T00:51:22.690Z,18.85
2023-05-19T00:53:49.319Z,19.14
2023-05-19T00:56:15.926Z,19.25
2023-05-19T00:58:42.361Z,19.25
2023-05-19T01:01:08.820Z,18.74
2023-05-19T01:03:35.649Z,18.83
2023-05-19T01:06:02.374Z,19.12
2023-05-19T01:08:28.781Z,19.20
2023-05-19T01:10:55.240Z,18.91
2023-05-19T01:13:21.641Z,19.07
2023-05-19T01:15:48.038Z,18.93
2023-05-19T01:18:14.502Z,19.08
2023-05-19T01:20:40.886Z,18.93
2023-05-19T01:23:07.324Z,18.79
2023-05-19T01:25:33.736Z,18.87
2023-05-19T01:28:00.139Z,18.80
2023-05-19T01:30:26.548Z,19.16
2023-05-19T01:32:53.032Z,18.75
2023-05-19T01:35:19.463Z,18.85
2023-05-19T01:37:45.887Z,19.13
2023-05-19T01:40:12.340Z,19.21
2023-05-19T01:42:38.757Z,19.15
2023-05-19T01:45:05.282Z,18.93
2023-05-19T01:47:31.745Z,18.91
2023-05-19T01:49:58.188Z,18.82
2023-05-19T01:52:24.631Z,18.87
2023-05-19T01:54:51.017Z,18.92
2023-05-19T01:57:17.395Z,19.24
2023-05-19T01:59:43.915Z,19.11
2023-05-19T02:02:10.466Z,19.09
2023-05-19T02:04:36.894Z,18.84
2023-05-19T02:07:03.344Z,18.93
2023-05-19T02:09:29.773Z,19.07
2023-05-19T02:11:56.217Z,18.78
2023-05-19T02:14:22.610Z,18.89
2023-05-19T02:16:49.070Z,19.19
2023-05-19T02:19:15.549Z,18.87
2023-05-19T02:21:41.983Z,19.02
2023-05-19T02:24:08.442Z,19.09
2023-05-19T02:26:34.847Z,18.91
2023-05-19T02:29:01.233Z,19.06
2023-05-19T02:31:27.711Z,19.11
2023-05-19T02:33:54.143Z,19.29
2023-05-19T02:36:20.558Z,19.19
2023-05-19T02:38:47.023Z,18.83
2023-05-19T02:41:13.430Z,18.85
2023-05-19T02:43:39.820Z,18.96
2023-05-19T02:46:06.291Z,19.31
2023-05-19T02:48:32.682Z,19.05
2023-05-19T02:50:59.086Z,19.14
2023-05-19T02:53:25.595Z,18.87
2023-05-19T02:55:52.024Z,18.90
2023-05-19T02:58:18.454Z,18.89
2023-05-19T03:00:44.948Z,19.23
2023-05-19T03:03:11.400Z,19.07
2023-05-19T03:05:37.947Z,19.08
2023-05-19T03:08:04.369Z,18.84
2023-05-19T03:10:30.901Z,19.00
2023-05-19T03:12:57.451Z,19.09
2023-05-19T03:15:23.856Z,18.83
2023-05-19T03:17:50.429Z,18.99
2023-05-19T03:20:16.918Z,19.33
2023-05-19T03:22:43.351Z,19.13
2023-05-19T03:25:09.774Z,18.83
2023-05-19T03:27:36.185Z,19.11
2023-05-19T03:30:04.928Z,19.28
2023-05-19T03:32:33.007Z,18.81
2023-05-19T03:34:59.512Z,18.99
2023-05-19T03:37:25.937Z,18.80
2023-05-19T03:39:52.393Z,19.28
2023-05-19T03:42:18.792Z,19.01
2023-05-19T03:44:45.209Z,18.89
2023-05-19T03:47:11.673Z,19.04
2023-05-19T03:49:38.093Z,18.88
2023-05-19T03:52:04.469Z,18.86
2023-05-19T03:54:30.949Z,19.19
2023-05-19T03:56:57.366Z,19.07
2023-05-19T03:59:23.762Z,18.88
2023-05-19T04:01:50.237Z,19.33
2023-05-19T04:04:16.765Z,19.00
2023-05-19T04:06:43.236Z,19.39
2023-05-19T04:09:09.649Z,19.11
2023-05-19T04:11:36.042Z,19.28
2023-05-19T04:14:02.448Z,19.29
2023-05-19T04:16:29.031Z,19.27
2023-05-19T04:18:55.584Z,19.17
2023-05-19T04:21:22.031Z,19.29
2023-05-19T04:23:48.451Z,19.13
2023-05-19T04:26:14.846Z,19.52
2023-05-19T04:28:41.266Z,19.33
2023-05-19T04:31:07.753Z,19.56
2023-05-19T04:33:34.206Z,19.46
2023-05-19T04:36:00.671Z,19.63
2023-05-19T04:38:27.078Z,19.82
2023-05-19T04:40:53.468Z,19.82
2023-05-19T04:43:19.922Z,19.49
2023-05-19T04:45:46.329Z,19.64
2023-05-19T04:48:12.728Z,19.71
2023-05-19T04:50:39.146Z,19.64
2023-05-19T04:53:05.592Z,19.68
2023-05-19T04:55:32.107Z,20.13
2023-05-19T04:57:58.673Z,19.90
2023-05-19T05:00:25.143Z,19.84
2023-05-19T05:02:51.694Z,19.89
2023-05-19T05:05:18.227Z,19.61
2023-05-19T05:07:44.690Z,19.43
2023-05-19T05:10:11.128Z,19.52
2023-05-19T05:12:37.542Z,20.03
2023-05-19T05:15:04.049Z,19.75
2023-05-19T05:17:30.538Z,19.86
2023-05-19T05:19:56.965Z,19.96
2023-05-19T05:22:23.385Z,19.78
2023-05-19T05:24:49.808Z,19.98
2023-05-19T05:27:16.190Z,20.09
2023-05-19T05:29:42.655Z,19.71
2023-05-19T05:32:09.081Z,20.03
2023-05-19T05:34:35.585Z,19.92
2023-05-19T05:37:02.019Z,19.95
2023-05-19T05:39:28.421Z,19.86
2023-05-19T05:41:54.839Z,19.87
2023-05-19T05:44:21.258Z,20.09
2023-05-19T05:46:47.664Z,20.06
2023-05-19T05:49:14.100Z,20.10
2023-05-19T05:51:40.739Z,20.16
2023-05-19T05:54:08.051Z,19.99
2023-05-19T05:56:34.455Z,20.04
2023-05-19T05:59:00.886Z,20.22
2023-05-19T06:01:27.301Z,20.13
2023-05-19T06:03:53.708Z,20.45
2023-05-19T06:06:20.109Z,20.33
2023-05-19T06:08:46.565Z,20.39
2023-05-19T06:11:13.005Z,20.62
2023-05-19T06:13:39.550Z,20.91
2023-05-19T06:16:06.011Z,20.63
2023-05-19T06:18:32.478Z,20.63
2023-05-19T06:20:58.890Z,20.85
2023-05-19T06:23:25.345Z,20.85
2023-05-19T06:25:51.773Z,20.95
2023-05-19T06:28:18.169Z,20.84
2023-05-19T06:30:44.599Z,21.28
2023-05-19T06:33:11.065Z,21.24
2023-05-19T06:35:37.512Z,21.05
2023-05-19T06:38:03.972Z,21.06
2023-05-19T06:40:30.590Z,21.23
2023-05-19T06:42:57.208Z,20.96
2023-05-19T06:45:23.713Z,21.33
2023-05-19T06:47:50.163Z,21.06
2023-05-19T06:50:16.567Z,21.25
2023-05-19T06:52:43.014Z,21.11
2023-05-19T06:55:09.420Z,21.08
2023-05-19T06:57:35.860Z,21.43
2023-05-19T07:00:02.314Z,21.22
2023-05-19T07:02:28.789Z,21.23
2023-05-19T07:04:55.304Z,21.09
2023-05-19T07:07:21.731Z,21.35
2023-05-19T07:09:48.132Z,21.26
2023-05-19T07:12:14.577Z,21.47
2023-05-19T07:14:41.037Z,21.33
2023-05-19T07:17:07.438Z,21.41
2023-05-19T07:19:33.844Z,21.73
2023-05-19T07:22:00.318Z,21.42
2023-05-19T07:24:26.755Z,21.31
2023-05-19T07:26:53.200Z,21.45
2023-05-19T07:29:19.657Z,21.49
2023-05-19T07:31:46.176Z,21.67
2023-05-19T07:34:12.624Z,21.47
2023-05-19T07:36:39.067Z,21.55
2023-05-19T07:39:05.536Z,21.64
2023-05-19T07:41:33.191Z,21.52
2023-05-19T07:44:00.764Z,21.63
2023-05-19T07:46:27.232Z,21.37
2023-05-19T07:48:53.667Z,21.36
2023-05-19T07:51:20.089Z,21.67
2023-05-19T07:53:46.467Z,21.67
2023-05-19T07:56:12.909Z,21.67
2023-05-19T07:58:40.321Z,21.57
2023-05-19T08:01:06.725Z,21.57
2023-05-19T08:03:33.322Z,21.79
2023-05-19T08:05:59.812Z,21.49
2023-05-19T08:08:26.313Z,21.41
2023-05-19T08:10:52.737Z,21.19
2023-05-19T08:13:19.216Z,21.06
2023-05-19T08:15:45.636Z,21.24
2023-05-19T08:18:12.250Z,21.28
2023-05-19T08:20:38.888Z,21.31
2023-05-19T08:23:06.545Z,21.12
2023-05-19T08:25:33.005Z,21.04
2023-05-19T08:27:59.482Z,20.81
2023-05-19T08:30:26.218Z,21.01
2023-05-19T08:32:52.693Z,20.90
2023-05-19T08:35:19.565Z,21.20
2023-05-19T08:37:45.968Z,21.12
2023-05-19T08:40:12.374Z,21.47
2023-05-19T08:42:38.805Z,21.33
2023-05-19T08:45:05.209Z,21.46
2023-05-19T08:47:31.650Z,21.27
2023-05-19T08:49:58.077Z,21.36
2023-05-19T08:52:24.489Z,21.70
2023-05-19T08:54:50.980Z,21.66
2023-05-19T08:57:17.405Z,21.57
2023-05-19T08:59:43.902Z,21.85
2023-05-19T09:02:10.360Z,21.76
2023-05-19T09:04:36.908Z,21.78
2023-05-19T09:07:03.458Z,22.07
2023-05-19T09:09:29.893Z,22.14
2023-05-19T09:11:56.314Z,21.96
2023-05-19T09:14:22.783Z,22.08
2023-05-19T09:16:49.203Z,21.76
2023-05-19T09:19:15.738Z,21.82
2023-05-19T09:21:42.211Z,22.02
2023-05-19T09:24:08.714Z,21.54
2023-05-19T09:26:35.148Z,21.82
2023-05-19T09:29:01.649Z,22.26
2023-05-19T09:31:28.043Z,22.10
2023-05-19T09:33:54.512Z,21.74
2023-05-19T09:36:20.972Z,21.91
2023-05-19T09:38:47.384Z,22.22
2023-05-19T09:41:13.795Z,22.26
2023-05-19T09:43:40.293Z,21.82
2023-05-19T09:46:06.979Z,21.89
2023-05-19T09:48:33.616Z,22.04
2023-05-19T09:51:00.053Z,22.31
2023-05-19T09:53:26.604Z,21.99
2023-05-19T09:55:53.042Z,21.97
2023-05-19T09:58:19.534Z,21.81
2023-05-19T10:00:45.952Z,22.16
2023-05-19T10:03:12.395Z,22.18
2023-05-19T10:05:38.907Z,22.18
2023-05-19T10:08:05.313Z,21.90
2023-05-19T10:10:31.754Z,22.06
2023-05-19T10:12:58.202Z,22.12
2023-05-19T10:15:24.643Z,22.07
2023-05-19T10:17:51.101Z,22.12
2023-05-19T10:20:17.616Z,21.90
2023-05-19T10:22:44.023Z,21.54
2023-05-19T10:25:10.468Z,21.81
2023-05-19T10:27:36.958Z,21.78
2023-05-19T10:30:03.354Z,21.75
2023-05-19T10:32:29.926Z,22.14
2023-05-19T10:34:56.546Z,21.70
2023-05-19T10:37:22.947Z,21.88
2023-05-19T10:39:49.349Z,21.70
2023-05-19T10:42:15.762Z,21.73
2023-05-19T10:44:42.195Z,22.16
2023-05-19T10:47:08.700Z,21.87
2023-05-19T10:49:35.273Z,22.06
2023-05-19T10:52:01.699Z,21.85
2023-05-19T10:54:28.129Z,22.10
2023-05-19T10:56:54.562Z,21.81
2023-05-19T10:59:20.957Z,22.01
2023-05-19T11:01:47.396Z,22.06
2023-05-19T11:04:14.046Z,21.76
2023-05-19T11:06:40.545Z,21.71
2023-05-19T11:09:07.015Z,22.00
2023-05-19T11:11:34.371Z,21.88
2023-05-19T11:14:01.284Z,21.72
2023-05-19T11:16:27.736Z,22.00
2023-05-19T11:18:54.248Z,21.70
2023-05-19T11:21:20.657Z,22.05
2023-05-19T11:23:47.141Z,21.96
2023-05-19T11:26:13.609Z,21.73
2023-05-19T11:28:40.034Z,22.00
2023-05-19T11:31:06.466Z,22.00
2023-05-19T11:33:32.902Z,22.21
2023-05-19T11:35:59.397Z,22.23
2023-05-19T11:38:25.818Z,22.67
2023-05-19T11:40:52.272Z,22.09
2023-05-19T11:43:18.747Z,22.40
2023-05-19T11:45:45.239Z,22.05
2023-05-19T11:48:11.733Z,22.13
2023-05-19T11:50:38.286Z,22.20
2023-05-19T11:53:04.916Z,22.24
2023-05-19T11:55:31.798Z,22.50
2023-05-19T11:58:03.855Z,22.16
2023-05-19T12:00:31.353Z,21.61
2023-05-19T12:02:57.922Z,21.89
2023-05-19T12:05:24.511Z,22.13
2023-05-19T12:07:51.002Z,22.10
2023-05-19T12:10:17.445Z,22.12
2023-05-19T12:12:43.863Z,22.55
2023-05-19T12:15:10.291Z,22.09
2023-05-19T12:17:36.781Z,22.19
2023-05-19T12:20:03.254Z,22.43
2023-05-19T12:22:29.657Z,22.36
2023-05-19T12:24:56.092Z,21.99
2023-05-19T12:27:22.489Z,22.01
2023-05-19T12:29:48.884Z,21.80
2023-05-19T12:32:15.300Z,21.96
2023-05-19T12:34:41.716Z,21.85
2023-05-19T12:37:08.127Z,22.09
2023-05-19T12:39:34.595Z,21.88
2023-05-19T12:42:01.025Z,21.90
2023-05-19T12:44:27.416Z,21.98
2023-05-19T12:46:53.864Z,22.02
2023-05-19T12:49:20.282Z,21.84
2023-05-19T12:51:46.854Z,21.59
2023-05-19T12:54:13.324Z,21.31
2023-05-19T12:56:39.809Z,21.30
2023-05-19T12:59:06.258Z,21.40
2023-05-19T13:01:32.816Z,21.37
2023-05-19T13:03:59.446Z,21.58
2023-05-19T13:06:25.903Z,21.68
2023-05-19T13:08:52.305Z,21.58
2023-05-19T13:11:18.741Z,21.69
2023-05-19T13:13:45.289Z,21.62
2023-05-19T13:16:11.761Z,21.04
2023-05-19T13:18:38.338Z,20.90
2023-05-19T13:21:04.796Z,21.25
2023-05-19T13:23:31.216Z,21.18
2023-05-19T13:25:57.644Z,20.93
2023-05-19T13:28:24.098Z,21.15
2023-05-19T13:30:50.504Z,21.07
2023-05-19T13:33:16.921Z,21.44
2023-05-19T13:35:43.373Z,21.50
2023-05-19T13:38:10.452Z,21.33
2023-05-19T13:40:37.125Z,21.30
2023-05-19T13:43:03.637Z,21.40
2023-05-19T13:45:31.605Z,21.23
2023-05-19T13:47:58.247Z,21.52
2023-05-19T13:50:24.755Z,21.21
2023-05-19T13:52:51.211Z,21.21
2023-05-19T13:55:17.769Z,21.17
2023-05-19T13:57:44.380Z,20.82
2023-05-19T14:00:10.822Z,20.88
2023-05-19T14:02:37.269Z,20.67
2023-05-19T14:05:03.763Z,21.22
2023-05-19T14:07:30.177Z,21.10
2023-05-19T14:09:56.595Z,20.94
2023-05-19T14:12:27.809Z,20.92
2023-05-19T14:15:01.162Z,20.87
2023-05-19T14:17:27.642Z,20.70
2023-05-19T14:19:54.105Z,21.13
2023-05-19T14:22:20.523Z,20.85
2023-05-19T14:24:46.954Z,21.01
2023-05-19T14:27:13.356Z,20.86
2023-05-19T14:29:39.788Z,21.00
2023-05-19T14:32:06.298Z,20.68
2023-05-19T14:34:32.865Z,20.77
2023-05-19T14:36:59.292Z,20.88
2023-05-19T14:39:25.752Z,21.06
2023-05-19T14:41:52.263Z,20.97
2023-05-19T14:44:18.723Z,20.79
2023-05-19T14:46:45.214Z,20.92
2023-05-19T14:49:11.677Z,20.72
2023-05-19T14:51:38.109Z,20.67
2023-05-19T14:54:04.555Z,21.03
2023-05-19T14:56:30.944Z,20.89
2023-05-19T14:58:57.338Z,20.78
2023-05-19T15:01:23.820Z,20.78
2023-05-19T15:03:50.379Z,20.55
2023-05-19T15:06:16.821Z,20.79
2023-05-19T15:08:43.270Z,20.67
2023-05-19T15:11:09.671Z,20.52
2023-05-19T15:13:36.081Z,20.42
2023-05-19T15:16:16.303Z,20.75
2023-05-19T15:18:44.385Z,20.43
2023-05-19T15:21:10.905Z,20.71
2023-05-19T15:23:37.294Z,20.85
2023-05-19T15:26:03.718Z,20.48
2023-05-19T15:28:30.135Z,20.66
2023-05-19T15:30:56.569Z,20.90
2023-05-19T15:33:23.026Z,20.98
2023-05-19T15:35:49.593Z,21.00
2023-05-19T15:38:16.164Z,20.80
2023-05-19T15:40:42.568Z,21.11
2023-05-19T15:43:09.033Z,21.05
2023-05-19T15:45:35.840Z,21.04
2023-05-19T15:48:02.300Z,21.21
2023-05-19T15:50:28.746Z,21.22
2023-05-19T15:52:55.152Z,21.35
2023-05-19T15:55:21.590Z,21.35
2023-05-19T15:57:48.136Z,21.27
2023-05-19T16:00:14.535Z,21.56
2023-05-19T16:02:41.090Z,21.42
2023-05-19T16:05:07.536Z,21.38
2023-05-19T16:07:33.955Z,21.32
2023-05-19T16:10:00.457Z,21.76
2023-05-19T16:12:26.866Z,21.75
2023-05-19T16:14:53.275Z,21.67
2023-05-19T16:17:19.736Z,21.71
2023-05-19T16:19:46.142Z,21.66
2023-05-19T16:22:12.618Z,21.78
2023-05-19T16:24:39.051Z,21.82
2023-05-19T16:27:05.464Z,21.70
2023-05-19T16:29:31.840Z,21.81
2023-05-19T16:31:58.299Z,21.64
2023-05-19T16:34:24.717Z,21.86
2023-05-19T16:36:51.138Z,21.68
2023-05-19T16:39:17.629Z,21.84
2023-05-19T16:41:44.056Z,21.79
2023-05-19T16:44:10.610Z,21.62
2023-05-19T16:46:37.155Z,21.76
2023-05-19T16:49:03.567Z,21.68
2023-05-19T16:51:29.965Z,21.73
2023-05-19T16:53:56.398Z,21.68
2023-05-19T16:56:22.854Z,21.61
2023-05-19T16:58:49.447Z,21.29
2023-05-19T17:01:15.966Z,21.36
2023-05-19T17:03:42.434Z,21.38
2023-05-19T17:06:09.017Z,21.68
2023-05-19T17:08:35.493Z,21.48
2023-05-19T17:11:01.922Z,21.34
2023-05-19T17:13:28.362Z,21.49
2023-05-19T17:15:54.846Z,21.42
2023-05-19T17:18:21.252Z,21.57
2023-05-19T17:20:48.757Z,21.49
2023-05-19T17:23:15.292Z,21.46
2023-05-19T17:25:41.721Z,21.01
2023-05-19T17:28:08.183Z,21.29
2023-05-19T17:30:34.842Z,21.22
2023-05-19T17:33:01.456Z,21.34
2023-05-19T17:35:28.549Z,21.20
2023-05-19T17:37:55.205Z,21.19
2023-05-19T17:40:21.600Z,21.30
2023-05-19T17:42:48.008Z,21.03
2023-05-19T17:45:14.491Z,21.21
2023-05-19T17:47:41.355Z,21.22
2023-05-19T17:50:07.807Z,21.35
2023-05-19T17:52:34.252Z,21.18
2023-05-19T17:55:00.711Z,21.04
2023-05-19T17:57:27.147Z,21.13
2023-05-19T17:59:53.615Z,20.95
2023-05-19T18:02:20.224Z,20.90
2023-05-19T18:04:46.694Z,21.01
2023-05-19T18:07:13.083Z,21.23
2023-05-19T18:09:39.536Z,20.92
2023-05-19T18:12:05.942Z,21.20
2023-05-19T18:14:32.351Z,21.23
2023-05-19T18:16:58.789Z,20.71
2023-05-19T18:19:25.316Z,20.96
2023-05-19T18:21:51.876Z,20.69
2023-05-19T18:24:18.296Z,20.86
2023-05-19T18:26:44.744Z,20.78
2023-05-19T18:29:11.273Z,20.92
2023-05-19T18:31:37.921Z,20.75
2023-05-19T18:34:04.393Z,20.55
2023-05-19T18:36:30.793Z,20.59
2023-05-19T18:38:57.219Z,20.56
2023-05-19T18:41:23.950Z,20.86
2023-05-19T18:43:50.339Z,20.59
2023-05-19T18:46:16.838Z,20.65
2023-05-19T18:48:43.270Z,20.56
2023-05-19T18:51:09.705Z,20.73
2023-05-19T18:53:36.166Z,20.70
2023-05-19T18:56:02.603Z,20.70
2023-05-19T18:58:29.023Z,20.50
2023-05-19T19:00:55.495Z,20.47
2023-05-19T19:03:21.980Z,20.77
2023-05-19T19:05:48.418Z,20.88
2023-05-19T19:08:14.992Z,20.92
2023-05-19T19:10:41.417Z,20.97
2023-05-19T19:13:07.869Z,20.57
2023-05-19T19:15:34.319Z,20.81
2023-05-19T19:18:00.758Z,20.72
2023-05-19T19:20:27.190Z,20.51
2023-05-19T19:22:53.676Z,20.68
2023-05-19T19:25:21.893Z,20.45
2023-05-19T19:27:49.601Z,20.75
2023-05-19T19:30:16.081Z,20.54
2023-05-19T19:32:42.526Z,20.87
2023-05-19T19:35:08.976Z,20.39
2023-05-19T19:37:35.439Z,20.43
2023-05-19T19:40:01.886Z,20.49
2023-05-19T19:42:28.336Z,20.67
2023-05-19T19:44:54.799Z,20.76
2023-05-19T19:47:21.203Z,20.80
2023-05-19T19:49:47.650Z,20.53
2023-05-19T19:52:14.095Z,20.57
2023-05-19T19:54:40.508Z,20.42
2023-05-19T19:57:06.952Z,20.67
2023-05-19T19:59:33.385Z,20.47
2023-05-19T20:01:59.881Z,20.72
2023-05-19T20:04:26.416Z,20.55
2023-05-19T20:06:52.913Z,20.24
2023-05-19T20:09:19.317Z,20.30
2023-05-19T20:11:45.776Z,20.61
2023-05-19T20:14:12.215Z,20.27
2023-05-19T20:16:38.666Z,20.13
2023-05-19T20:19:06.683Z,20.39
2023-05-19T20:21:34.240Z,20.31
2023-05-19T20:24:00.674Z,20.43
2023-05-19T20:26:27.105Z,20.59
2023-05-19T20:28:53.582Z,20.66
2023-05-19T20:31:19.969Z,20.40
2023-05-19T20:33:46.402Z,20.55
2023-05-19T20:36:12.879Z,20.65
2023-05-19T20:38:39.274Z,20.51
2023-05-19T20:41:05.698Z,20.38
2023-05-19T20:43:32.144Z,20.46
2023-05-19T20:45:58.594Z,20.13
2023-05-19T20:48:25.069Z,20.47
2023-05-19T20:50:51.545Z,20.45
2023-05-19T20:53:17.966Z,20.31
2023-05-19T20:55:44.449Z,20.34
2023-05-19T20:58:10.858Z,20.35
2023-05-19T21:00:37.378Z,20.62
2023-05-19T21:03:03.987Z,20.30
2023-05-19T21:05:30.433Z,20.54
2023-05-19T21:07:57.209Z,20.15
2023-05-19T21:10:23.684Z,20.15
2023-05-19T21:12:50.132Z,20.24
2023-05-19T21:15:16.528Z,20.32
2023-05-19T21:17:42.991Z,20.65
2023-05-19T21:20:09.471Z,20.21
2023-05-19T21:22:35.975Z,20.49
2023-05-19T21:25:02.552Z,20.46
2023-05-19T21:27:28.975Z,20.16
2023-05-19T21:29:55.396Z,20.16
2023-05-19T21:32:21.839Z,20.32
2023-05-19T21:34:48.249Z,20.31
2023-05-19T21:37:14.662Z,20.21
2023-05-19T21:39:41.092Z,20.58
2023-05-19T21:42:07.526Z,20.55
2023-05-19T21:44:33.981Z,20.57
2023-05-19T21:47:00.451Z,20.54
2023-05-19T21:49:26.897Z,20.05
2023-05-19T21:51:53.297Z,20.24
2023-05-19T21:54:19.758Z,20.01
2023-05-19T21:56:46.157Z,20.16
2023-05-19T21:59:12.609Z,20.49
2023-05-19T22:01:39.052Z,20.33
2023-05-19T22:04:05.590Z,20.20
2023-05-19T22:06:32.072Z,20.43
2023-05-19T22:08:58.486Z,20.26
2023-05-19T22:11:24.936Z,20.03
2023-05-19T22:13:51.386Z,20.16
2023-05-19T22:16:17.844Z,20.18
2023-05-19T22:18:44.347Z,20.49
2023-05-19T22:21:10.795Z,20.26
2023-05-19T22:23:37.227Z,20.34
2023-05-19T22:26:03.687Z,20.20
2023-05-19T22:28:30.128Z,20.09
2023-05-19T22:30:56.577Z,20.25
2023-05-19T22:33:23.038Z,20.51
2023-05-19T22:35:49.457Z,20.55
2023-05-19T22:38:15.892Z,20.18
2023-05-19T22:40:42.347Z,20.18
2023-05-19T22:43:08.749Z,20.33
2023-05-19T22:45:35.540Z,20.43
2023-05-19T22:48:02.259Z,20.27
2023-05-19T22:50:28.677Z,20.28
2023-05-19T22:52:55.064Z,20.56
2023-05-19T22:55:21.531Z,20.10
2023-05-19T22:57:47.907Z,20.42
2023-05-19T23:00:14.305Z,20.57
2023-05-19T23:02:40.771Z,20.19
2023-05-19T23:05:07.183Z,20.27
2023-05-19T23:07:33.604Z,20.25
2023-05-19T23:10:00.080Z,20.21
2023-05-19T23:12:26.712Z,20.56
2023-05-19T23:14:53.149Z,20.18
2023-05-19T23:17:19.635Z,20.55
2023-05-19T23:19:46.080Z,20.42
2023-05-19T23:22:12.527Z,20.21
2023-05-19T23:24:38.983Z,20.48
2023-05-19T23:27:05.418Z,20.31
2023-05-19T23:29:31.825Z,20.29
2023-05-19T23:31:58.257Z,20.32
2023-05-19T23:34:24.700Z,20.42
2023-05-19T23:36:51.098Z,20.13
2023-05-19T23:39:17.546Z,20.50
2023-05-19T23:41:43.953Z,20.52
2023-05-19T23:44:10.350Z,20.42
2023-05-19T23:46:36.852Z,20.38
2023-05-19T23:49:03.322Z,20.41
2023-05-19T23:51:29.790Z,20.08
2023-05-19T23:53:56.258Z,20.41
2023-05-19T23:56:22.657Z,20.44
2023-05-19T23:58:49.076Z,20.36
